sensor_id;sensor_type;location;lat;lon;timestamp;temperature;humidity
13332;DHT22;6735;51.456;12.626;2022-07-29T00:00:45;17.10;54.30
13332;DHT22;6735;51.456;12.626;2022-07-29T00:03:12;17.10;54.30
13332;DHT22;6735;51.456;12.626;2022-07-29T00:05:41;17.20;54.30
13332;DHT22;6735;51.456;12.626;2022-07-29T00:08:07;17.20;54.40
13332;DHT22;6735;51.456;12.626;2022-07-29T00:10:34;17.20;54.30
13332;DHT22;6735;51.456;12.626;2022-07-29T00:12:59;17.20;54.30
13332;DHT22;6735;51.456;12.626;2022-07-29T00:15:25;17.20;54.40
13332;DHT22;6735;51.456;12.626;2022-07-29T00:17:51;17.20;54.30
13332;DHT22;6735;51.456;12.626;2022-07-29T00:20:16;17.20;54.30
13332;DHT22;6735;51.456;12.626;2022-07-29T00:22:42;17.20;54.50
13332;DHT22;6735;51.456;12.626;2022-07-29T00:25:08;17.20;54.40
13332;DHT22;6735;51.456;12.626;2022-07-29T00:27:34;17.20;54.40
13332;DHT22;6735;51.456;12.626;2022-07-29T00:30:00;17.20;54.50
13332;DHT22;6735;51.456;12.626;2022-07-29T00:32:25;17.20;54.50
13332;DHT22;6735;51.456;12.626;2022-07-29T00:34:51;17.20;54.50
13332;DHT22;6735;51.456;12.626;2022-07-29T00:37:35;17.20;54.50
13332;DHT22;6735;51.456;12.626;2022-07-29T00:40:01;17.20;54.70
13332;DHT22;6735;51.456;12.626;2022-07-29T00:42:26;17.20;54.50
13332;DHT22;6735;51.456;12.626;2022-07-29T00:44:52;17.20;54.60
13332;DHT22;6735;51.456;12.626;2022-07-29T00:47:18;17.20;54.60
13332;DHT22;6735;51.456;12.626;2022-07-29T00:49:43;17.20;54.60
13332;DHT22;6735;51.456;12.626;2022-07-29T00:52:10;17.20;54.60
13332;DHT22;6735;51.456;12.626;2022-07-29T00:54:38;17.20;54.60
13332;DHT22;6735;51.456;12.626;2022-07-29T00:57:06;17.20;54.70
13332;DHT22;6735;51.456;12.626;2022-07-29T00:59:31;17.20;54.70
13332;DHT22;6735;51.456;12.626;2022-07-29T01:01:57;17.20;54.70
13332;DHT22;6735;51.456;12.626;2022-07-29T01:04:22;17.20;54.80
13332;DHT22;6735;51.456;12.626;2022-07-29T01:06:48;17.20;54.90
13332;DHT22;6735;51.456;12.626;2022-07-29T01:09:15;17.20;55.00
13332;DHT22;6735;51.456;12.626;2022-07-29T01:11:41;17.10;55.20
13332;DHT22;6735;51.456;12.626;2022-07-29T01:14:08;17.10;55.00
13332;DHT22;6735;51.456;12.626;2022-07-29T01:22:35;17.10;55.30
13332;DHT22;6735;51.456;12.626;2022-07-29T01:25:05;17.00;55.20
13332;DHT22;6735;51.456;12.626;2022-07-29T01:30:38;17.10;55.20
13332;DHT22;6735;51.456;12.626;2022-07-29T01:33:09;17.10;55.00
13332;DHT22;6735;51.456;12.626;2022-07-29T01:35:45;17.00;55.00
13332;DHT22;6735;51.456;12.626;2022-07-29T01:38:14;17.00;55.10
13332;DHT22;6735;51.456;12.626;2022-07-29T01:40:57;17.10;55.00
13332;DHT22;6735;51.456;12.626;2022-07-29T01:43:31;17.10;55.00
13332;DHT22;6735;51.456;12.626;2022-07-29T01:46:01;17.10;55.10
13332;DHT22;6735;51.456;12.626;2022-07-29T01:48:37;17.10;55.20
13332;DHT22;6735;51.456;12.626;2022-07-29T01:51:09;17.00;55.40
13332;DHT22;6735;51.456;12.626;2022-07-29T01:53:54;17.00;55.40
13332;DHT22;6735;51.456;12.626;2022-07-29T01:56:23;17.00;55.70
13332;DHT22;6735;51.456;12.626;2022-07-29T01:58:49;17.00;55.40
13332;DHT22;6735;51.456;12.626;2022-07-29T02:01:17;17.00;55.80
13332;DHT22;6735;51.456;12.626;2022-07-29T02:03:45;16.90;55.60
13332;DHT22;6735;51.456;12.626;2022-07-29T02:06:12;16.90;55.50
13332;DHT22;6735;51.456;12.626;2022-07-29T02:08:41;17.00;55.50
13332;DHT22;6735;51.456;12.626;2022-07-29T02:11:08;16.90;55.50
13332;DHT22;6735;51.456;12.626;2022-07-29T02:13:35;16.90;55.60
13332;DHT22;6735;51.456;12.626;2022-07-29T02:16:04;16.90;55.60
13332;DHT22;6735;51.456;12.626;2022-07-29T02:18:31;17.00;55.60
13332;DHT22;6735;51.456;12.626;2022-07-29T02:20:59;17.00;55.60
13332;DHT22;6735;51.456;12.626;2022-07-29T02:23:26;17.00;55.50
13332;DHT22;6735;51.456;12.626;2022-07-29T02:25:54;17.00;55.50
13332;DHT22;6735;51.456;12.626;2022-07-29T02:28:22;17.00;55.50
13332;DHT22;6735;51.456;12.626;2022-07-29T02:30:50;17.00;55.60
13332;DHT22;6735;51.456;12.626;2022-07-29T02:33:17;17.00;55.70
13332;DHT22;6735;51.456;12.626;2022-07-29T02:35:44;17.00;55.80
13332;DHT22;6735;51.456;12.626;2022-07-29T02:38:16;16.90;55.90
13332;DHT22;6735;51.456;12.626;2022-07-29T02:41:17;17.00;55.80
13332;DHT22;6735;51.456;12.626;2022-07-29T02:43:46;16.90;55.80
13332;DHT22;6735;51.456;12.626;2022-07-29T02:46:18;17.00;55.80
13332;DHT22;6735;51.456;12.626;2022-07-29T02:48:55;17.00;55.90
13332;DHT22;6735;51.456;12.626;2022-07-29T02:51:28;17.00;55.90
13332;DHT22;6735;51.456;12.626;2022-07-29T02:54:01;16.90;56.00
13332;DHT22;6735;51.456;12.626;2022-07-29T02:56:32;16.90;55.90
13332;DHT22;6735;51.456;12.626;2022-07-29T02:59:03;16.90;55.90
13332;DHT22;6735;51.456;12.626;2022-07-29T03:01:31;17.00;55.80
13332;DHT22;6735;51.456;12.626;2022-07-29T03:04:01;16.90;55.80
13332;DHT22;6735;51.456;12.626;2022-07-29T03:06:28;16.90;55.70
13332;DHT22;6735;51.456;12.626;2022-07-29T03:08:55;16.90;55.80
13332;DHT22;6735;51.456;12.626;2022-07-29T03:11:21;16.90;55.90
13332;DHT22;6735;51.456;12.626;2022-07-29T03:13:47;16.90;55.80
13332;DHT22;6735;51.456;12.626;2022-07-29T03:16:14;16.90;55.80
13332;DHT22;6735;51.456;12.626;2022-07-29T03:18:40;16.90;55.80
13332;DHT22;6735;51.456;12.626;2022-07-29T03:21:06;16.90;55.80
13332;DHT22;6735;51.456;12.626;2022-07-29T03:23:32;16.90;55.80
13332;DHT22;6735;51.456;12.626;2022-07-29T03:25:57;16.90;55.80
13332;DHT22;6735;51.456;12.626;2022-07-29T03:28:23;16.90;55.90
13332;DHT22;6735;51.456;12.626;2022-07-29T03:30:49;16.80;55.90
13332;DHT22;6735;51.456;12.626;2022-07-29T03:33:15;16.90;56.00
13332;DHT22;6735;51.456;12.626;2022-07-29T03:35:41;16.80;55.90
13332;DHT22;6735;51.456;12.626;2022-07-29T03:38:06;16.80;55.90
13332;DHT22;6735;51.456;12.626;2022-07-29T03:40:44;16.80;55.80
13332;DHT22;6735;51.456;12.626;2022-07-29T03:43:12;16.80;55.90
13332;DHT22;6735;51.456;12.626;2022-07-29T03:45:39;16.90;55.90
13332;DHT22;6735;51.456;12.626;2022-07-29T03:48:10;16.80;56.00
13332;DHT22;6735;51.456;12.626;2022-07-29T03:50:37;16.90;56.00
13332;DHT22;6735;51.456;12.626;2022-07-29T03:53:03;16.90;55.90
13332;DHT22;6735;51.456;12.626;2022-07-29T03:55:32;16.90;55.90
13332;DHT22;6735;51.456;12.626;2022-07-29T03:58:00;16.90;55.90
13332;DHT22;6735;51.456;12.626;2022-07-29T04:00:27;16.90;55.80
13332;DHT22;6735;51.456;12.626;2022-07-29T04:02:53;16.90;55.90
13332;DHT22;6735;51.456;12.626;2022-07-29T04:05:19;16.90;56.00
13332;DHT22;6735;51.456;12.626;2022-07-29T04:07:45;16.90;56.20
13332;DHT22;6735;51.456;12.626;2022-07-29T04:10:11;16.90;56.10
13332;DHT22;6735;51.456;12.626;2022-07-29T04:12:37;16.90;56.00
13332;DHT22;6735;51.456;12.626;2022-07-29T04:15:03;16.90;55.90
13332;DHT22;6735;51.456;12.626;2022-07-29T04:17:29;16.90;55.70
13332;DHT22;6735;51.456;12.626;2022-07-29T04:19:55;16.90;55.70
13332;DHT22;6735;51.456;12.626;2022-07-29T04:22:20;16.90;55.80
13332;DHT22;6735;51.456;12.626;2022-07-29T04:24:45;16.90;55.50
13332;DHT22;6735;51.456;12.626;2022-07-29T04:27:11;16.90;55.50
13332;DHT22;6735;51.456;12.626;2022-07-29T04:29:36;16.90;55.50
13332;DHT22;6735;51.456;12.626;2022-07-29T04:32:02;16.90;55.50
13332;DHT22;6735;51.456;12.626;2022-07-29T04:34:28;16.90;55.40
13332;DHT22;6735;51.456;12.626;2022-07-29T04:36:53;17.00;55.30
13332;DHT22;6735;51.456;12.626;2022-07-29T04:39:18;17.00;55.40
13332;DHT22;6735;51.456;12.626;2022-07-29T04:41:44;17.00;55.30
13332;DHT22;6735;51.456;12.626;2022-07-29T04:44:10;17.00;55.20
13332;DHT22;6735;51.456;12.626;2022-07-29T04:46:35;17.10;55.20
13332;DHT22;6735;51.456;12.626;2022-07-29T04:49:02;17.10;55.20
13332;DHT22;6735;51.456;12.626;2022-07-29T04:51:28;17.10;55.10
13332;DHT22;6735;51.456;12.626;2022-07-29T04:53:53;17.20;55.00
13332;DHT22;6735;51.456;12.626;2022-07-29T04:56:19;17.10;55.00
13332;DHT22;6735;51.456;12.626;2022-07-29T04:58:44;17.20;55.00
13332;DHT22;6735;51.456;12.626;2022-07-29T05:01:10;17.20;54.80
13332;DHT22;6735;51.456;12.626;2022-07-29T05:03:35;17.30;54.70
13332;DHT22;6735;51.456;12.626;2022-07-29T05:06:01;17.40;54.60
13332;DHT22;6735;51.456;12.626;2022-07-29T05:08:26;17.40;54.60
13332;DHT22;6735;51.456;12.626;2022-07-29T05:10:52;17.50;54.60
13332;DHT22;6735;51.456;12.626;2022-07-29T05:13:17;17.40;54.50
13332;DHT22;6735;51.456;12.626;2022-07-29T05:15:43;17.50;54.30
13332;DHT22;6735;51.456;12.626;2022-07-29T05:18:08;17.60;54.30
13332;DHT22;6735;51.456;12.626;2022-07-29T05:20:34;17.70;53.90
13332;DHT22;6735;51.456;12.626;2022-07-29T05:23:00;17.70;54.20
13332;DHT22;6735;51.456;12.626;2022-07-29T05:25:27;17.70;54.00
13332;DHT22;6735;51.456;12.626;2022-07-29T05:27:53;18.10;53.40
13332;DHT22;6735;51.456;12.626;2022-07-29T05:30:19;18.80;52.00
13332;DHT22;6735;51.456;12.626;2022-07-29T05:32:44;20.00;49.70
13332;DHT22;6735;51.456;12.626;2022-07-29T05:35:10;20.40;48.80
13332;DHT22;6735;51.456;12.626;2022-07-29T05:37:36;20.60;48.30
13332;DHT22;6735;51.456;12.626;2022-07-29T05:40:03;20.50;48.50
13332;DHT22;6735;51.456;12.626;2022-07-29T05:42:28;20.30;48.60
13332;DHT22;6735;51.456;12.626;2022-07-29T05:44:54;20.30;48.60
13332;DHT22;6735;51.456;12.626;2022-07-29T05:47:20;20.70;47.60
13332;DHT22;6735;51.456;12.626;2022-07-29T05:49:45;20.70;47.80
13332;DHT22;6735;51.456;12.626;2022-07-29T05:52:11;20.90;46.90
13332;DHT22;6735;51.456;12.626;2022-07-29T05:54:36;21.20;46.80
13332;DHT22;6735;51.456;12.626;2022-07-29T05:57:03;21.20;46.40
13332;DHT22;6735;51.456;12.626;2022-07-29T05:59:28;21.00;46.50
13332;DHT22;6735;51.456;12.626;2022-07-29T06:01:54;21.00;45.80
13332;DHT22;6735;51.456;12.626;2022-07-29T06:04:19;20.80;46.60
13332;DHT22;6735;51.456;12.626;2022-07-29T06:06:45;20.60;47.10
13332;DHT22;6735;51.456;12.626;2022-07-29T06:09:10;20.50;46.70
13332;DHT22;6735;51.456;12.626;2022-07-29T06:11:36;20.20;47.70
13332;DHT22;6735;51.456;12.626;2022-07-29T06:14:01;20.40;47.40
13332;DHT22;6735;51.456;12.626;2022-07-29T06:16:28;20.30;47.60
13332;DHT22;6735;51.456;12.626;2022-07-29T06:18:53;20.20;47.60
13332;DHT22;6735;51.456;12.626;2022-07-29T06:21:19;20.20;47.70
13332;DHT22;6735;51.456;12.626;2022-07-29T06:23:45;20.20;48.00
13332;DHT22;6735;51.456;12.626;2022-07-29T06:26:10;20.20;48.00
13332;DHT22;6735;51.456;12.626;2022-07-29T06:28:36;20.10;47.90
13332;DHT22;6735;51.456;12.626;2022-07-29T06:31:01;20.10;48.00
13332;DHT22;6735;51.456;12.626;2022-07-29T06:33:27;20.20;47.80
13332;DHT22;6735;51.456;12.626;2022-07-29T06:35:52;20.30;47.80
13332;DHT22;6735;51.456;12.626;2022-07-29T06:38:18;20.70;47.10
13332;DHT22;6735;51.456;12.626;2022-07-29T06:40:45;20.60;47.10
13332;DHT22;6735;51.456;12.626;2022-07-29T06:43:27;20.70;47.00
13332;DHT22;6735;51.456;12.626;2022-07-29T06:45:52;20.60;47.40
13332;DHT22;6735;51.456;12.626;2022-07-29T06:48:18;20.50;47.20
13332;DHT22;6735;51.456;12.626;2022-07-29T06:50:43;20.40;47.40
13332;DHT22;6735;51.456;12.626;2022-07-29T06:53:09;20.40;47.40
13332;DHT22;6735;51.456;12.626;2022-07-29T06:55:34;20.60;47.20
13332;DHT22;6735;51.456;12.626;2022-07-29T06:58:02;20.70;47.20
13332;DHT22;6735;51.456;12.626;2022-07-29T07:00:27;20.80;47.20
13332;DHT22;6735;51.456;12.626;2022-07-29T07:02:53;20.70;46.70
13332;DHT22;6735;51.456;12.626;2022-07-29T07:05:18;20.90;46.50
13332;DHT22;6735;51.456;12.626;2022-07-29T07:07:44;21.00;46.40
13332;DHT22;6735;51.456;12.626;2022-07-29T07:10:09;21.20;45.80
13332;DHT22;6735;51.456;12.626;2022-07-29T07:12:35;21.50;45.00
13332;DHT22;6735;51.456;12.626;2022-07-29T07:15:00;21.60;45.00
13332;DHT22;6735;51.456;12.626;2022-07-29T07:17:26;21.70;44.90
13332;DHT22;6735;51.456;12.626;2022-07-29T07:19:51;21.40;45.60
13332;DHT22;6735;51.456;12.626;2022-07-29T07:22:17;21.60;45.40
13332;DHT22;6735;51.456;12.626;2022-07-29T07:24:42;21.80;45.10
13332;DHT22;6735;51.456;12.626;2022-07-29T07:27:07;21.80;44.70
13332;DHT22;6735;51.456;12.626;2022-07-29T07:29:33;21.90;44.90
13332;DHT22;6735;51.456;12.626;2022-07-29T07:31:58;22.50;44.10
13332;DHT22;6735;51.456;12.626;2022-07-29T07:34:24;23.50;41.90
13332;DHT22;6735;51.456;12.626;2022-07-29T07:36:49;24.20;41.10
13332;DHT22;6735;51.456;12.626;2022-07-29T07:39:15;25.10;40.00
13332;DHT22;6735;51.456;12.626;2022-07-29T07:41:40;25.60;39.30
13332;DHT22;6735;51.456;12.626;2022-07-29T07:44:06;26.00;38.70
13332;DHT22;6735;51.456;12.626;2022-07-29T07:46:31;26.50;38.20
13332;DHT22;6735;51.456;12.626;2022-07-29T07:48:57;26.60;37.70
13332;DHT22;6735;51.456;12.626;2022-07-29T07:51:22;26.60;36.90
13332;DHT22;6735;51.456;12.626;2022-07-29T07:53:48;26.60;37.10
13332;DHT22;6735;51.456;12.626;2022-07-29T07:56:16;26.80;37.20
13332;DHT22;6735;51.456;12.626;2022-07-29T07:58:41;26.70;36.60
13332;DHT22;6735;51.456;12.626;2022-07-29T08:01:08;26.50;36.40
13332;DHT22;6735;51.456;12.626;2022-07-29T08:03:34;26.50;36.60
13332;DHT22;6735;51.456;12.626;2022-07-29T08:05:59;26.70;35.70
13332;DHT22;6735;51.456;12.626;2022-07-29T08:08:25;27.20;35.50
13332;DHT22;6735;51.456;12.626;2022-07-29T08:10:50;27.40;34.70
13332;DHT22;6735;51.456;12.626;2022-07-29T08:13:21;27.20;35.20
13332;DHT22;6735;51.456;12.626;2022-07-29T08:15:47;27.70;34.50
13332;DHT22;6735;51.456;12.626;2022-07-29T08:18:13;28.10;33.90
13332;DHT22;6735;51.456;12.626;2022-07-29T08:20:39;28.30;33.70
13332;DHT22;6735;51.456;12.626;2022-07-29T08:23:06;28.60;33.30
13332;DHT22;6735;51.456;12.626;2022-07-29T08:25:35;28.50;33.10
13332;DHT22;6735;51.456;12.626;2022-07-29T08:28:01;28.40;33.00
13332;DHT22;6735;51.456;12.626;2022-07-29T08:30:26;28.40;33.30
13332;DHT22;6735;51.456;12.626;2022-07-29T08:32:52;28.30;33.30
13332;DHT22;6735;51.456;12.626;2022-07-29T08:35:19;27.90;33.40
13332;DHT22;6735;51.456;12.626;2022-07-29T08:37:44;28.00;33.40
13332;DHT22;6735;51.456;12.626;2022-07-29T08:40:11;28.20;33.00
13332;DHT22;6735;51.456;12.626;2022-07-29T08:42:37;28.20;33.20
13332;DHT22;6735;51.456;12.626;2022-07-29T08:45:04;28.50;32.60
13332;DHT22;6735;51.456;12.626;2022-07-29T08:47:29;28.70;32.70
13332;DHT22;6735;51.456;12.626;2022-07-29T08:49:55;28.90;32.20
13332;DHT22;6735;51.456;12.626;2022-07-29T08:52:21;29.00;32.00
13332;DHT22;6735;51.456;12.626;2022-07-29T08:54:48;28.70;32.30
13332;DHT22;6735;51.456;12.626;2022-07-29T08:57:15;28.80;32.00
13332;DHT22;6735;51.456;12.626;2022-07-29T08:59:42;28.80;31.60
13332;DHT22;6735;51.456;12.626;2022-07-29T09:02:19;29.00;31.70
13332;DHT22;6735;51.456;12.626;2022-07-29T09:04:45;29.40;31.10
13332;DHT22;6735;51.456;12.626;2022-07-29T09:07:15;29.70;30.90
13332;DHT22;6735;51.456;12.626;2022-07-29T09:09:41;29.80;30.60
13332;DHT22;6735;51.456;12.626;2022-07-29T09:12:06;29.70;30.80
13332;DHT22;6735;51.456;12.626;2022-07-29T09:14:33;29.80;30.80
13332;DHT22;6735;51.456;12.626;2022-07-29T09:16:59;29.90;30.40
13332;DHT22;6735;51.456;12.626;2022-07-29T09:19:26;29.70;30.70
13332;DHT22;6735;51.456;12.626;2022-07-29T09:21:52;29.90;30.30
13332;DHT22;6735;51.456;12.626;2022-07-29T09:24:25;30.00;29.90
13332;DHT22;6735;51.456;12.626;2022-07-29T09:26:51;29.90;30.60
13332;DHT22;6735;51.456;12.626;2022-07-29T09:29:22;30.20;29.90
13332;DHT22;6735;51.456;12.626;2022-07-29T09:31:50;30.30;29.90
13332;DHT22;6735;51.456;12.626;2022-07-29T09:34:21;30.60;29.40
13332;DHT22;6735;51.456;12.626;2022-07-29T09:36:49;30.50;29.80
13332;DHT22;6735;51.456;12.626;2022-07-29T09:39:16;30.40;29.60
13332;DHT22;6735;51.456;12.626;2022-07-29T09:41:52;30.10;29.30
13332;DHT22;6735;51.456;12.626;2022-07-29T09:44:19;29.80;29.80
13332;DHT22;6735;51.456;12.626;2022-07-29T09:49:18;30.20;29.40
13332;DHT22;6735;51.456;12.626;2022-07-29T09:51:43;30.30;29.20
13332;DHT22;6735;51.456;12.626;2022-07-29T09:54:25;30.50;29.20
13332;DHT22;6735;51.456;12.626;2022-07-29T09:56:53;30.60;28.80
13332;DHT22;6735;51.456;12.626;2022-07-29T09:59:19;30.20;29.20
13332;DHT22;6735;51.456;12.626;2022-07-29T10:01:48;30.20;29.50
13332;DHT22;6735;51.456;12.626;2022-07-29T10:04:15;30.20;29.40
13332;DHT22;6735;51.456;12.626;2022-07-29T10:06:58;29.90;29.60
13332;DHT22;6735;51.456;12.626;2022-07-29T10:09:25;30.00;28.60
13332;DHT22;6735;51.456;12.626;2022-07-29T10:12:10;30.10;29.30
13332;DHT22;6735;51.456;12.626;2022-07-29T10:14:37;30.40;29.10
13332;DHT22;6735;51.456;12.626;2022-07-29T10:17:04;30.70;28.90
13332;DHT22;6735;51.456;12.626;2022-07-29T10:19:31;30.50;29.20
13332;DHT22;6735;51.456;12.626;2022-07-29T10:21:58;30.80;29.00
13332;DHT22;6735;51.456;12.626;2022-07-29T10:24:26;31.10;28.60
13332;DHT22;6735;51.456;12.626;2022-07-29T10:26:57;31.00;28.50
13332;DHT22;6735;51.456;12.626;2022-07-29T10:29:24;31.00;28.60
13332;DHT22;6735;51.456;12.626;2022-07-29T10:34:27;31.10;28.30
13332;DHT22;6735;51.456;12.626;2022-07-29T10:37:19;31.50;27.60
13332;DHT22;6735;51.456;12.626;2022-07-29T10:40:11;31.60;26.90
13332;DHT22;6735;51.456;12.626;2022-07-29T10:43:04;31.70;26.90
13332;DHT22;6735;51.456;12.626;2022-07-29T10:45:33;31.80;27.20
13332;DHT22;6735;51.456;12.626;2022-07-29T10:48:03;31.90;27.20
13332;DHT22;6735;51.456;12.626;2022-07-29T10:51:00;31.90;26.80
13332;DHT22;6735;51.456;12.626;2022-07-29T10:56:26;32.60;25.80
13332;DHT22;6735;51.456;12.626;2022-07-29T10:59:22;32.60;25.40
13332;DHT22;6735;51.456;12.626;2022-07-29T11:01:50;32.40;26.10
13332;DHT22;6735;51.456;12.626;2022-07-29T11:09:29;32.30;26.20
13332;DHT22;6735;51.456;12.626;2022-07-29T11:11:56;32.60;26.10
13332;DHT22;6735;51.456;12.626;2022-07-29T11:14:57;32.60;26.20
13332;DHT22;6735;51.456;12.626;2022-07-29T11:17:24;32.90;26.00
13332;DHT22;6735;51.456;12.626;2022-07-29T11:19:50;32.70;26.20
13332;DHT22;6735;51.456;12.626;2022-07-29T11:22:35;32.70;26.20
13332;DHT22;6735;51.456;12.626;2022-07-29T11:25:15;32.70;25.40
13332;DHT22;6735;51.456;12.626;2022-07-29T11:27:40;32.70;25.70
13332;DHT22;6735;51.456;12.626;2022-07-29T11:30:07;32.80;26.30
13332;DHT22;6735;51.456;12.626;2022-07-29T11:32:38;32.90;26.20
13332;DHT22;6735;51.456;12.626;2022-07-29T11:35:12;33.20;26.20
13332;DHT22;6735;51.456;12.626;2022-07-29T11:37:37;33.50;25.20
13332;DHT22;6735;51.456;12.626;2022-07-29T11:40:09;33.20;26.10
13332;DHT22;6735;51.456;12.626;2022-07-29T11:45:13;33.00;26.40
13332;DHT22;6735;51.456;12.626;2022-07-29T11:47:42;33.10;25.90
13332;DHT22;6735;51.456;12.626;2022-07-29T11:50:13;33.10;25.90
13332;DHT22;6735;51.456;12.626;2022-07-29T11:52:42;33.10;25.80
13332;DHT22;6735;51.456;12.626;2022-07-29T11:55:17;33.10;25.90
13332;DHT22;6735;51.456;12.626;2022-07-29T11:57:56;33.20;25.80
13332;DHT22;6735;51.456;12.626;2022-07-29T12:00:30;33.10;26.20
13332;DHT22;6735;51.456;12.626;2022-07-29T12:02:57;33.30;25.90
13332;DHT22;6735;51.456;12.626;2022-07-29T12:05:34;33.50;25.80
13332;DHT22;6735;51.456;12.626;2022-07-29T12:08:12;33.50;25.00
13332;DHT22;6735;51.456;12.626;2022-07-29T12:10:39;33.50;25.00
13332;DHT22;6735;51.456;12.626;2022-07-29T12:13:05;33.60;25.50
13332;DHT22;6735;51.456;12.626;2022-07-29T12:15:31;33.70;25.60
13332;DHT22;6735;51.456;12.626;2022-07-29T12:17:56;33.70;25.60
13332;DHT22;6735;51.456;12.626;2022-07-29T12:20:28;33.50;25.80
13332;DHT22;6735;51.456;12.626;2022-07-29T12:22:55;33.60;25.60
13332;DHT22;6735;51.456;12.626;2022-07-29T12:25:22;33.60;25.60
13332;DHT22;6735;51.456;12.626;2022-07-29T12:27:57;33.70;25.60
13332;DHT22;6735;51.456;12.626;2022-07-29T12:30:23;33.80;25.60
13332;DHT22;6735;51.456;12.626;2022-07-29T12:32:59;33.80;25.50
13332;DHT22;6735;51.456;12.626;2022-07-29T12:35:24;33.70;25.50
13332;DHT22;6735;51.456;12.626;2022-07-29T12:37:50;33.70;25.30
13332;DHT22;6735;51.456;12.626;2022-07-29T12:40:17;33.70;25.60
13332;DHT22;6735;51.456;12.626;2022-07-29T12:43:06;34.10;25.30
13332;DHT22;6735;51.456;12.626;2022-07-29T12:45:32;34.20;24.30
13332;DHT22;6735;51.456;12.626;2022-07-29T12:47:58;34.50;24.90
13332;DHT22;6735;51.456;12.626;2022-07-29T12:50:23;34.70;24.60
13332;DHT22;6735;51.456;12.626;2022-07-29T12:52:50;34.80;24.30
13332;DHT22;6735;51.456;12.626;2022-07-29T12:55:15;34.70;24.30
13332;DHT22;6735;51.456;12.626;2022-07-29T12:57:46;34.60;24.40
13332;DHT22;6735;51.456;12.626;2022-07-29T13:00:13;34.40;24.80
13332;DHT22;6735;51.456;12.626;2022-07-29T13:02:40;34.50;24.90
13332;DHT22;6735;51.456;12.626;2022-07-29T13:05:07;34.40;24.70
13332;DHT22;6735;51.456;12.626;2022-07-29T13:07:34;34.30;24.70
13332;DHT22;6735;51.456;12.626;2022-07-29T13:10:21;34.20;24.80
13332;DHT22;6735;51.456;12.626;2022-07-29T13:15:27;33.90;24.30
13332;DHT22;6735;51.456;12.626;2022-07-29T13:17:52;33.90;24.70
13332;DHT22;6735;51.456;12.626;2022-07-29T13:20:18;33.60;24.70
13332;DHT22;6735;51.456;12.626;2022-07-29T13:22:47;33.40;24.80
13332;DHT22;6735;51.456;12.626;2022-07-29T13:25:13;33.40;24.50
13332;DHT22;6735;51.456;12.626;2022-07-29T13:27:39;33.30;24.90
13332;DHT22;6735;51.456;12.626;2022-07-29T13:30:08;33.20;24.80
13332;DHT22;6735;51.456;12.626;2022-07-29T13:32:35;33.20;24.70
13332;DHT22;6735;51.456;12.626;2022-07-29T13:35:04;33.00;25.00
13332;DHT22;6735;51.456;12.626;2022-07-29T13:37:30;33.20;25.00
13332;DHT22;6735;51.456;12.626;2022-07-29T13:39:58;33.10;25.10
13332;DHT22;6735;51.456;12.626;2022-07-29T13:42:24;33.10;25.10
13332;DHT22;6735;51.456;12.626;2022-07-29T13:44:50;33.20;25.30
13332;DHT22;6735;51.456;12.626;2022-07-29T13:47:17;33.10;25.20
13332;DHT22;6735;51.456;12.626;2022-07-29T13:49:42;33.00;25.50
13332;DHT22;6735;51.456;12.626;2022-07-29T13:52:08;33.10;25.90
13332;DHT22;6735;51.456;12.626;2022-07-29T13:54:34;33.10;25.90
13332;DHT22;6735;51.456;12.626;2022-07-29T13:57:03;33.10;25.70
13332;DHT22;6735;51.456;12.626;2022-07-29T13:59:28;33.10;25.90
13332;DHT22;6735;51.456;12.626;2022-07-29T14:01:54;33.40;25.60
13332;DHT22;6735;51.456;12.626;2022-07-29T14:04:19;33.50;25.50
13332;DHT22;6735;51.456;12.626;2022-07-29T14:06:45;33.70;25.50
13332;DHT22;6735;51.456;12.626;2022-07-29T14:09:10;33.60;25.50
13332;DHT22;6735;51.456;12.626;2022-07-29T14:11:36;33.40;25.80
13332;DHT22;6735;51.456;12.626;2022-07-29T14:14:03;33.20;26.20
13332;DHT22;6735;51.456;12.626;2022-07-29T14:16:29;33.00;26.20
13332;DHT22;6735;51.456;12.626;2022-07-29T14:18:54;32.90;26.30
13332;DHT22;6735;51.456;12.626;2022-07-29T14:21:20;32.60;26.50
13332;DHT22;6735;51.456;12.626;2022-07-29T14:23:45;32.40;26.50
13332;DHT22;6735;51.456;12.626;2022-07-29T14:26:10;32.20;26.60
13332;DHT22;6735;51.456;12.626;2022-07-29T14:28:36;32.10;26.60
13332;DHT22;6735;51.456;12.626;2022-07-29T14:31:01;32.20;26.70
13332;DHT22;6735;51.456;12.626;2022-07-29T14:33:27;32.20;26.70
13332;DHT22;6735;51.456;12.626;2022-07-29T14:35:52;32.10;26.80
13332;DHT22;6735;51.456;12.626;2022-07-29T14:38:18;32.10;27.00
13332;DHT22;6735;51.456;12.626;2022-07-29T14:40:44;32.10;27.20
13332;DHT22;6735;51.456;12.626;2022-07-29T14:43:09;32.00;27.30
13332;DHT22;6735;51.456;12.626;2022-07-29T14:45:35;31.80;27.40
13332;DHT22;6735;51.456;12.626;2022-07-29T14:48:00;31.60;27.90
13332;DHT22;6735;51.456;12.626;2022-07-29T14:50:25;31.50;28.10
13332;DHT22;6735;51.456;12.626;2022-07-29T14:52:51;31.40;28.20
13332;DHT22;6735;51.456;12.626;2022-07-29T14:55:17;31.40;28.40
13332;DHT22;6735;51.456;12.626;2022-07-29T14:57:42;31.50;28.40
13332;DHT22;6735;51.456;12.626;2022-07-29T15:00:09;31.20;28.40
13332;DHT22;6735;51.456;12.626;2022-07-29T15:02:35;31.20;28.30
13332;DHT22;6735;51.456;12.626;2022-07-29T15:05:00;31.20;28.40
13332;DHT22;6735;51.456;12.626;2022-07-29T15:07:27;31.20;28.40
13332;DHT22;6735;51.456;12.626;2022-07-29T15:09:52;31.20;28.60
13332;DHT22;6735;51.456;12.626;2022-07-29T15:12:18;31.20;28.70
13332;DHT22;6735;51.456;12.626;2022-07-29T15:14:43;31.10;28.80
13332;DHT22;6735;51.456;12.626;2022-07-29T15:17:09;30.90;28.80
13332;DHT22;6735;51.456;12.626;2022-07-29T15:19:34;30.70;28.80
13332;DHT22;6735;51.456;12.626;2022-07-29T15:22:00;30.60;29.00
13332;DHT22;6735;51.456;12.626;2022-07-29T15:24:25;30.70;29.20
13332;DHT22;6735;51.456;12.626;2022-07-29T15:26:51;30.70;29.30
13332;DHT22;6735;51.456;12.626;2022-07-29T15:29:16;30.70;29.30
13332;DHT22;6735;51.456;12.626;2022-07-29T15:31:42;30.70;29.30
13332;DHT22;6735;51.456;12.626;2022-07-29T15:34:08;30.80;29.50
13332;DHT22;6735;51.456;12.626;2022-07-29T15:36:33;30.90;29.70
13332;DHT22;6735;51.456;12.626;2022-07-29T15:38:59;30.90;29.90
13332;DHT22;6735;51.456;12.626;2022-07-29T15:41:25;31.00;29.90
13332;DHT22;6735;51.456;12.626;2022-07-29T15:43:50;31.00;29.70
13332;DHT22;6735;51.456;12.626;2022-07-29T15:46:18;30.90;29.60
13332;DHT22;6735;51.456;12.626;2022-07-29T15:49:04;30.80;29.80
13332;DHT22;6735;51.456;12.626;2022-07-29T15:51:30;30.70;29.90
13332;DHT22;6735;51.456;12.626;2022-07-29T15:53:56;30.70;30.00
13332;DHT22;6735;51.456;12.626;2022-07-29T15:56:22;30.60;29.90
13332;DHT22;6735;51.456;12.626;2022-07-29T15:58:48;30.60;29.80
13332;DHT22;6735;51.456;12.626;2022-07-29T16:01:14;30.60;29.90